createdAt,value
2023-02-08T00:01:08.414Z,66.20
2023-02-08T00:03:36.428Z,66.50
2023-02-08T00:06:04.892Z,66.80
2023-02-08T00:08:32.987Z,66.30
2023-02-08T00:11:01.360Z,66.40
2023-02-08T00:13:30.815Z,66.70
2023-02-08T00:15:58.842Z,66.40
2023-02-08T00:18:26.750Z,66.70
2023-02-08T00:20:55.589Z,66.80
2023-02-08T00:23:23.437Z,68.00
2023-02-08T00:25:51.521Z,68.90
2023-02-08T00:28:20.335Z,68.90
2023-02-08T00:30:49.967Z,69.20
2023-02-08T00:33:17.851Z,68.40
2023-02-08T00:35:45.784Z,67.70
2023-02-08T00:38:13.670Z,67.60
2023-02-08T00:40:41.986Z,66.40
2023-02-08T00:43:10.074Z,66.60
2023-02-08T00:45:37.950Z,65.80
2023-02-08T00:48:07.260Z,63.20
2023-02-08T00:50:35.123Z,64.70
2023-02-08T00:53:03.018Z,66.50
2023-02-08T00:55:31.123Z,67.70
2023-02-08T00:57:58.996Z,67.50
2023-02-08T01:00:26.913Z,67.40
2023-02-08T01:02:54.806Z,66.40
2023-02-08T01:05:24.050Z,66.20
2023-02-08T01:07:51.926Z,65.30
2023-02-08T01:10:19.988Z,64.90
2023-02-08T01:12:47.876Z,65.40
2023-02-08T01:15:15.736Z,65.40
2023-02-08T01:17:44.130Z,65.20
2023-02-08T01:20:12.809Z,64.60
2023-02-08T01:22:42.036Z,65.50
2023-02-08T01:25:11.209Z,66.00
2023-02-08T01:27:39.120Z,65.20
2023-02-08T01:30:07.738Z,66.00
2023-02-08T01:32:35.645Z,65.90
2023-02-08T01:35:03.505Z,65.10
2023-02-08T01:37:31.409Z,64.50
2023-02-08T01:40:00.612Z,62.90
2023-02-08T01:42:28.635Z,63.90
2023-02-08T01:45:25.233Z,62.70
2023-02-08T01:47:57.509Z,62.70
2023-02-08T01:50:30.741Z,63.10
2023-02-08T01:52:59.255Z,64.20
2023-02-08T01:55:33.046Z,64.90
2023-02-08T01:58:04.750Z,65.30
2023-02-08T02:00:32.961Z,65.80
2023-02-08T02:03:03.822Z,65.30
2023-02-08T02:05:39.462Z,65.00
2023-02-08T02:08:08.658Z,64.50
2023-02-08T02:10:39.568Z,65.50
2023-02-08T02:13:10.382Z,65.80
2023-02-08T02:15:38.673Z,63.10
2023-02-08T02:18:09.016Z,62.60
2023-02-08T02:20:49.870Z,63.30
2023-02-08T02:23:36.909Z,64.10
2023-02-08T02:26:47.851Z,65.00
2023-02-08T02:29:33.452Z,65.60
2023-02-08T02:32:15.246Z,65.80
2023-02-08T02:34:48.527Z,65.50
2023-02-08T02:37:31.088Z,65.90
2023-02-08T02:40:08.406Z,65.50
2023-02-08T02:43:14.100Z,66.20
2023-02-08T02:45:50.722Z,67.00
2023-02-08T02:48:27.300Z,66.30
2023-02-08T02:51:01.083Z,65.40
2023-02-08T02:53:33.533Z,65.10
2023-02-08T02:56:06.078Z,64.00
2023-02-08T02:58:35.426Z,63.80
2023-02-08T03:01:03.328Z,63.30
2023-02-08T03:03:35.425Z,62.50
2023-02-08T03:06:07.634Z,63.10
2023-02-08T03:09:13.025Z,62.40
2023-02-08T03:11:46.820Z,63.10
2023-02-08T03:14:34.687Z,64.30
2023-02-08T03:17:23.172Z,65.10
2023-02-08T03:19:58.917Z,63.90
2023-02-08T03:22:35.982Z,64.30
2023-02-08T03:25:09.162Z,64.50
2023-02-08T03:27:41.485Z,64.70
2023-02-08T03:30:16.877Z,64.10
2023-02-08T03:32:48.556Z,64.10
2023-02-08T03:35:21.584Z,63.60
2023-02-08T03:37:54.284Z,63.70
2023-02-08T03:40:26.400Z,63.60
2023-02-08T03:42:57.455Z,63.20
2023-02-08T03:45:29.807Z,62.50
2023-02-08T03:48:01.257Z,62.40
2023-02-08T03:50:32.855Z,63.70
2023-02-08T03:53:01.991Z,63.60
2023-02-08T03:55:33.371Z,64.10
2023-02-08T03:58:07.192Z,64.70
2023-02-08T04:00:39.915Z,63.70
2023-02-08T04:03:14.293Z,64.70
2023-02-08T04:05:43.813Z,63.50
2023-02-08T04:08:11.687Z,63.80
2023-02-08T04:10:40.228Z,63.60
2023-02-08T04:13:08.305Z,64.80
2023-02-08T04:15:36.292Z,63.90
2023-02-08T04:18:04.216Z,64.50
2023-02-08T04:20:32.103Z,64.40
2023-02-08T04:23:01.345Z,64.80
2023-02-08T04:25:29.362Z,63.50
2023-02-08T04:27:57.277Z,63.20
2023-02-08T04:30:25.150Z,63.50
2023-02-08T04:32:53.064Z,64.40
2023-02-08T04:35:20.943Z,64.70
2023-02-08T04:37:48.950Z,65.20
2023-02-08T04:40:18.641Z,64.40
2023-02-08T04:42:46.549Z,64.40
2023-02-08T04:45:14.443Z,64.70
2023-02-08T04:47:42.346Z,64.50
2023-02-08T04:50:11.654Z,64.30
2023-02-08T04:52:39.536Z,64.20
2023-02-08T04:55:08.467Z,64.10
2023-02-08T04:57:37.706Z,64.20
2023-02-08T05:00:06.558Z,63.60
2023-02-08T05:02:34.452Z,64.20
2023-02-08T05:05:02.455Z,64.00
2023-02-08T05:07:30.364Z,65.30
2023-02-08T05:09:58.290Z,65.20
2023-02-08T05:12:26.236Z,65.10
2023-02-08T05:14:55.701Z,64.10
2023-02-08T05:17:23.674Z,65.00
2023-02-08T05:19:51.586Z,66.30
2023-02-08T05:22:19.516Z,66.30
2023-02-08T05:24:47.624Z,66.40
2023-02-08T05:27:15.536Z,67.30
2023-02-08T05:29:44.002Z,66.90
2023-02-08T05:32:13.653Z,66.30
2023-02-08T05:34:41.557Z,66.30
2023-02-08T05:37:09.491Z,65.90
2023-02-08T05:39:37.386Z,64.80
2023-02-08T05:42:05.291Z,64.00
2023-02-08T05:44:33.248Z,64.10
2023-02-08T05:47:01.908Z,65.00
2023-02-08T05:49:31.330Z,65.80
2023-02-08T05:51:59.281Z,66.20
2023-02-08T05:54:27.298Z,66.10
2023-02-08T05:56:55.199Z,66.40
2023-02-08T05:59:23.062Z,66.10
2023-02-08T06:01:50.959Z,64.50
2023-02-08T06:04:18.885Z,64.70
2023-02-08T06:06:48.203Z,63.70
2023-02-08T06:09:16.072Z,64.80
2023-02-08T06:11:44.052Z,64.00
2023-02-08T06:14:11.959Z,64.60
2023-02-08T06:16:39.884Z,64.00
2023-02-08T06:19:08.888Z,63.80
2023-02-08T06:21:36.813Z,63.80
2023-02-08T06:24:06.861Z,65.20
2023-02-08T06:26:35.152Z,64.70
2023-02-08T06:29:03.052Z,65.90
2023-02-08T06:31:31.044Z,64.80
2023-02-08T06:33:59.095Z,65.50
2023-02-08T06:36:27.084Z,65.70
2023-02-08T06:38:55.402Z,65.90
2023-02-08T06:41:24.679Z,67.00
2023-02-08T06:43:52.756Z,66.80
2023-02-08T06:46:20.840Z,66.70
2023-02-08T06:48:48.693Z,67.30
2023-02-08T06:51:16.567Z,67.00
2023-02-08T06:53:44.474Z,65.30
2023-02-08T06:56:12.346Z,65.30
2023-02-08T06:58:41.616Z,66.10
2023-02-08T07:01:13.298Z,66.10
2023-02-08T07:03:41.540Z,66.60
2023-02-08T07:06:13.929Z,66.10
2023-02-08T07:08:42.300Z,66.10
2023-02-08T07:11:10.661Z,66.10
2023-02-08T07:13:39.546Z,66.10
2023-02-08T07:16:10.937Z,67.60
2023-02-08T07:18:41.583Z,68.10
2023-02-08T07:21:11.378Z,67.10
2023-02-08T07:23:39.702Z,65.50
2023-02-08T07:26:09.574Z,63.20
2023-02-08T07:28:40.070Z,61.20
2023-02-08T07:31:10.377Z,60.40
2023-02-08T07:33:38.869Z,57.90
2023-02-08T07:36:07.677Z,56.30
2023-02-08T07:38:35.783Z,56.50
2023-02-08T07:41:04.638Z,54.60
2023-02-08T07:43:34.441Z,54.50
2023-02-08T07:46:07.179Z,54.20
2023-02-08T07:48:39.831Z,54.10
2023-02-08T07:51:08.775Z,51.50
2023-02-08T07:53:37.119Z,51.50
2023-02-08T07:56:05.585Z,51.00
2023-02-08T07:58:33.547Z,49.30
2023-02-08T08:01:09.522Z,48.40
2023-02-08T08:03:45.279Z,48.60
2023-02-08T08:06:13.183Z,47.50
2023-02-08T08:08:41.166Z,47.20
2023-02-08T08:11:09.088Z,47.10
2023-02-08T08:13:36.951Z,46.00
2023-02-08T08:16:04.996Z,45.80
2023-02-08T08:18:32.917Z,44.90
2023-02-08T08:21:02.177Z,46.00
2023-02-08T08:23:30.106Z,44.50
2023-02-08T08:25:58.006Z,43.70
2023-02-08T08:28:26.328Z,45.20
2023-02-08T08:30:54.424Z,43.80
2023-02-08T08:33:22.359Z,45.50
2023-02-08T08:35:50.330Z,44.50
2023-02-08T08:38:19.639Z,45.30
2023-02-08T08:40:47.517Z,44.70
2023-02-08T08:43:15.963Z,44.20
2023-02-08T08:45:43.852Z,42.10
2023-02-08T08:48:11.789Z,42.00
2023-02-08T08:50:40.703Z,39.70
2023-02-08T08:53:08.737Z,39.30
2023-02-08T08:55:37.973Z,37.50
2023-02-08T08:58:05.836Z,38.60
2023-02-08T09:00:33.705Z,37.40
2023-02-08T09:03:01.617Z,37.00
2023-02-08T09:05:29.598Z,36.50
2023-02-08T09:07:57.451Z,37.70
2023-02-08T09:10:25.324Z,37.80
2023-02-08T09:12:54.624Z,37.60
2023-02-08T09:15:22.517Z,38.70
2023-02-08T09:17:50.629Z,37.70
2023-02-08T09:20:18.675Z,36.00
2023-02-08T09:22:46.602Z,35.30
2023-02-08T09:25:14.573Z,37.10
2023-02-08T09:27:42.473Z,39.70
2023-02-08T09:30:12.724Z,35.60
2023-02-08T09:32:40.773Z,37.30
2023-02-08T09:35:09.086Z,35.70
2023-02-08T09:37:37.010Z,37.00
2023-02-08T09:40:05.385Z,36.70
2023-02-08T09:42:40.355Z,37.30
2023-02-08T09:45:31.001Z,36.00
2023-02-08T09:48:03.325Z,34.60
2023-02-08T09:50:35.023Z,33.70
2023-02-08T09:53:09.155Z,35.40
2023-02-08T09:55:40.715Z,34.80
2023-02-08T09:58:18.506Z,33.70
2023-02-08T10:00:50.823Z,34.20
2023-02-08T10:03:30.485Z,33.00
2023-02-08T10:05:58.468Z,31.80
2023-02-08T10:08:35.189Z,31.70
2023-02-08T10:11:11.801Z,32.20
2023-02-08T10:13:54.500Z,31.30
2023-02-08T10:16:45.575Z,31.00
2023-02-08T10:19:24.818Z,29.80
2023-02-08T10:22:05.482Z,30.90
2023-02-08T10:24:49.282Z,30.00
2023-02-08T10:27:18.789Z,30.70
2023-02-08T10:30:08.648Z,31.20
2023-02-08T10:33:02.935Z,30.50
2023-02-08T10:35:37.259Z,29.20
2023-02-08T10:38:37.142Z,30.00
2023-02-08T10:41:18.059Z,29.90
2023-02-08T10:43:49.720Z,30.40
2023-02-08T10:46:25.583Z,30.00
2023-02-08T10:49:09.041Z,29.20
2023-02-08T10:51:37.258Z,29.40
2023-02-08T10:54:05.482Z,27.90
2023-02-08T10:56:43.190Z,27.40
2023-02-08T10:59:21.033Z,28.20
2023-02-08T11:01:50.291Z,27.90
2023-02-08T11:04:19.823Z,29.40
2023-02-08T11:06:49.031Z,29.50
2023-02-08T11:09:25.297Z,29.20
2023-02-08T11:11:54.434Z,28.80
2023-02-08T11:14:34.959Z,29.00
2023-02-08T11:17:03.259Z,29.90
2023-02-08T11:19:42.466Z,28.10
2023-02-08T11:22:16.917Z,28.00
2023-02-08T11:24:50.399Z,28.50
2023-02-08T11:27:30.023Z,29.70
2023-02-08T11:30:21.356Z,29.60
2023-02-08T11:32:51.155Z,28.50
2023-02-08T11:35:24.179Z,28.50
2023-02-08T11:37:54.349Z,28.10
2023-02-08T11:40:26.421Z,28.30
2023-02-08T11:42:54.809Z,28.60
2023-02-08T11:45:25.896Z,28.30
2023-02-08T11:47:54.854Z,30.20
2023-02-08T11:50:31.481Z,29.00
2023-02-08T11:53:01.731Z,28.60
2023-02-08T11:55:32.144Z,28.90
2023-02-08T11:58:02.026Z,29.40
2023-02-08T12:00:32.045Z,26.70
2023-02-08T12:03:01.972Z,28.70
2023-02-08T12:05:45.204Z,29.30
2023-02-08T12:08:22.107Z,29.20
2023-02-08T12:11:03.749Z,28.20
2023-02-08T12:13:59.549Z,28.30
2023-02-08T12:16:44.064Z,27.40
2023-02-08T12:19:35.208Z,27.90
2023-02-08T12:22:10.499Z,30.20
2023-02-08T12:24:48.292Z,26.80
2023-02-08T12:27:28.278Z,28.60
2023-02-08T12:30:05.154Z,28.80
2023-02-08T12:33:01.257Z,27.70
2023-02-08T12:36:05.456Z,29.50
2023-02-08T12:39:25.990Z,28.00
2023-02-08T12:42:16.397Z,28.90
2023-02-08T12:45:03.733Z,29.50
2023-02-08T12:48:02.983Z,27.00
2023-02-08T12:50:37.880Z,28.50
2023-02-08T12:53:16.563Z,29.20
2023-02-08T12:55:47.180Z,28.70
2023-02-08T12:58:26.720Z,27.90
2023-02-08T13:00:57.805Z,28.90
2023-02-08T13:03:34.584Z,28.80
2023-02-08T13:06:07.918Z,30.70
2023-02-08T13:08:42.127Z,30.60
2023-02-08T13:11:20.431Z,29.10
2023-02-08T13:13:56.594Z,29.60
2023-02-08T13:16:29.406Z,28.80
2023-02-08T13:19:19.445Z,28.00
2023-02-08T13:21:47.791Z,29.80
2023-02-08T13:24:27.425Z,30.90
2023-02-08T13:26:56.723Z,30.00
2023-02-08T13:29:28.135Z,28.10
2023-02-08T13:32:02.642Z,28.90
2023-02-08T13:34:35.905Z,31.70
2023-02-08T13:37:16.542Z,29.60
2023-02-08T13:39:49.634Z,29.10
2023-02-08T13:42:24.697Z,29.10
2023-02-08T13:44:55.428Z,33.20
2023-02-08T13:47:26.929Z,30.10
2023-02-08T13:49:59.970Z,32.10
2023-02-08T13:52:50.927Z,28.80
2023-02-08T13:55:53.210Z,30.00
2023-02-08T13:59:01.324Z,29.90
2023-02-08T14:01:30.533Z,31.20
2023-02-08T14:04:31.844Z,31.80
2023-02-08T14:07:05.567Z,32.00
2023-02-08T14:09:47.278Z,31.80
2023-02-08T14:12:22.089Z,30.20
2023-02-08T14:15:24.058Z,30.30
2023-02-08T14:17:57.910Z,29.60
2023-02-08T14:20:30.978Z,29.90
2023-02-08T14:23:01.641Z,32.80
2023-02-08T14:25:39.587Z,30.00
2023-02-08T14:28:09.430Z,32.10
2023-02-08T14:30:42.166Z,31.10
2023-02-08T14:33:17.076Z,30.00
2023-02-08T14:35:55.303Z,30.20
2023-02-08T14:38:49.570Z,30.60
2023-02-08T14:41:49.304Z,31.60
2023-02-08T14:44:53.935Z,30.20
2023-02-08T14:48:00.606Z,30.90
2023-02-08T14:50:43.919Z,31.20
2023-02-08T14:53:22.396Z,31.10
2023-02-08T14:55:53.354Z,33.20
2023-02-08T14:58:30.632Z,30.60
2023-02-08T15:01:02.107Z,33.10
2023-02-08T15:03:33.073Z,32.70
2023-02-08T15:06:49.510Z,32.50
2023-02-08T15:09:21.595Z,32.60
2023-02-08T15:11:55.198Z,32.30
2023-02-08T15:14:23.812Z,32.40
2023-02-08T15:16:53.559Z,32.00
2023-02-08T15:19:26.895Z,33.10
2023-02-08T15:21:56.553Z,34.20
2023-02-08T15:24:29.820Z,32.50
2023-02-08T15:26:58.724Z,33.20
2023-02-08T15:29:42.770Z,33.70
2023-02-08T15:32:15.750Z,34.20
2023-02-08T15:34:44.635Z,34.90
2023-02-08T15:37:18.318Z,35.60
2023-02-08T15:39:49.992Z,35.60
2023-02-08T15:42:19.588Z,35.70
2023-02-08T15:44:48.422Z,35.90
2023-02-08T15:47:19.699Z,36.40
2023-02-08T15:49:50.812Z,37.30
2023-02-08T15:52:22.886Z,37.20
2023-02-08T15:54:51.438Z,35.60
2023-02-08T15:57:30.992Z,36.80
2023-02-08T15:59:59.855Z,35.90
2023-02-08T16:02:31.001Z,36.90
2023-02-08T16:05:00.015Z,37.20
2023-02-08T16:07:34.335Z,37.60
2023-02-08T16:10:02.729Z,37.90
2023-02-08T16:12:31.000Z,38.40
2023-02-08T16:14:59.037Z,38.70
2023-02-08T16:17:37.682Z,40.00
2023-02-08T16:20:25.996Z,39.10
2023-02-08T16:23:00.125Z,42.20
2023-02-08T16:25:44.260Z,41.10
2023-02-08T16:28:28.645Z,42.00
2023-02-08T16:30:57.524Z,45.20
2023-02-08T16:33:26.004Z,47.70
2023-02-08T16:36:01.620Z,49.30
2023-02-08T16:38:33.766Z,48.10
2023-02-08T16:41:12.885Z,49.00
2023-02-08T16:43:43.886Z,48.90
2023-02-08T16:46:24.634Z,48.80
2023-02-08T16:48:54.898Z,51.90
2023-02-08T16:51:26.086Z,52.40
2023-02-08T16:53:58.110Z,53.10
2023-02-08T16:56:26.249Z,50.80
2023-02-08T16:58:54.232Z,51.50
2023-02-08T17:01:23.957Z,53.50
2023-02-08T17:03:52.991Z,54.00
2023-02-08T17:06:30.430Z,52.90
2023-02-08T17:09:01.033Z,52.90
2023-02-08T17:11:29.978Z,52.50
2023-02-08T17:13:58.364Z,52.40
2023-02-08T17:16:28.765Z,53.70
2023-02-08T17:18:58.299Z,55.40
2023-02-08T17:21:27.298Z,56.80
2023-02-08T17:23:55.230Z,58.00
2023-02-08T17:26:27.484Z,56.10
2023-02-08T17:28:55.808Z,54.90
2023-02-08T17:31:24.689Z,55.30
2023-02-08T17:33:52.779Z,55.40
2023-02-08T17:36:20.676Z,55.40
2023-02-08T17:38:48.651Z,55.40
2023-02-08T17:41:19.552Z,55.70
2023-02-08T17:43:52.225Z,55.80
2023-02-08T17:46:22.760Z,55.30
2023-02-08T17:48:50.760Z,55.60
2023-02-08T17:51:21.121Z,55.00
2023-02-08T17:53:49.172Z,55.60
2023-02-08T17:56:18.605Z,55.00
2023-02-08T17:58:51.365Z,57.40
2023-02-08T18:01:23.687Z,57.10
2023-02-08T18:03:52.452Z,57.20
2023-02-08T18:06:23.004Z,57.50
2023-02-08T18:08:51.013Z,58.50
2023-02-08T18:11:20.853Z,58.90
2023-02-08T18:13:52.104Z,58.60
2023-02-08T18:16:22.258Z,58.20
2023-02-08T18:18:50.261Z,57.90
2023-02-08T18:21:20.613Z,57.90
2023-02-08T18:23:50.022Z,58.30
2023-02-08T18:26:19.982Z,60.20
2023-02-08T18:28:48.300Z,59.20
2023-02-08T18:31:20.151Z,59.60
2023-02-08T18:33:49.728Z,60.20
2023-02-08T18:36:18.438Z,60.20
2023-02-08T18:38:48.297Z,60.30
2023-02-08T18:41:21.188Z,61.20
2023-02-08T18:43:49.908Z,60.30
2023-02-08T18:46:21.025Z,60.10
2023-02-08T18:48:50.512Z,60.10
2023-02-08T18:51:19.933Z,59.80
2023-02-08T18:53:50.900Z,59.40
2023-02-08T18:56:22.913Z,60.00
2023-02-08T18:58:51.711Z,60.10
2023-02-08T19:01:23.894Z,60.00
2023-02-08T19:03:52.184Z,60.40
2023-02-08T19:06:22.549Z,60.40
2023-02-08T19:08:52.432Z,60.20
2023-02-08T19:11:22.736Z,60.50
2023-02-08T19:13:51.422Z,60.00
2023-02-08T19:16:22.078Z,60.00
2023-02-08T19:18:50.472Z,56.80
2023-02-08T19:21:19.152Z,55.70
2023-02-08T19:23:47.715Z,52.80
2023-02-08T19:26:18.170Z,54.30
2023-02-08T19:28:46.246Z,54.40
2023-02-08T19:31:16.597Z,51.40
2023-02-08T19:33:48.282Z,50.60
2023-02-08T19:36:18.849Z,50.70
2023-02-08T19:38:47.194Z,48.50
2023-02-08T19:41:17.582Z,46.80
2023-02-08T19:43:45.629Z,48.50
2023-02-08T19:46:15.777Z,47.70
2023-02-08T19:48:45.110Z,47.40
2023-02-08T19:51:13.285Z,48.00
2023-02-08T19:53:41.230Z,45.90
2023-02-08T19:56:11.992Z,45.30
2023-02-08T19:58:40.078Z,46.50
2023-02-08T20:01:09.220Z,47.30
2023-02-08T20:03:37.489Z,47.20
2023-02-08T20:06:13.734Z,47.30
2023-02-08T20:08:41.567Z,47.20
2023-02-08T20:11:17.519Z,47.30
2023-02-08T20:13:45.571Z,48.20
2023-02-08T20:16:14.664Z,49.80
2023-02-08T20:18:42.758Z,49.60
2023-02-08T20:21:12.617Z,51.70
2023-02-08T20:23:40.669Z,49.50
2023-02-08T20:26:11.227Z,49.40
2023-02-08T20:28:41.561Z,49.40
2023-02-08T20:31:10.104Z,48.90
2023-02-08T20:33:38.514Z,49.30
2023-02-08T20:36:09.425Z,47.80
2023-02-08T20:38:40.043Z,47.90
2023-02-08T20:41:12.169Z,49.00
2023-02-08T20:43:43.598Z,49.10
2023-02-08T20:46:19.604Z,50.00
2023-02-08T20:48:48.707Z,50.40
2023-02-08T20:51:20.831Z,49.70
2023-02-08T20:53:51.462Z,51.40
2023-02-08T20:56:22.983Z,51.90
2023-02-08T20:58:54.296Z,54.00
2023-02-08T21:01:25.541Z,54.20
2023-02-08T21:03:55.214Z,54.30
2023-02-08T21:06:26.453Z,54.10
2023-02-08T21:08:56.569Z,54.80
2023-02-08T21:11:26.223Z,54.90
2023-02-08T21:13:54.263Z,55.00
2023-02-08T21:16:22.212Z,55.40
2023-02-08T21:18:50.240Z,55.90
2023-02-08T21:21:19.148Z,56.10
2023-02-08T21:23:47.661Z,56.60
2023-02-08T21:26:19.399Z,56.90
2023-02-08T21:28:47.986Z,57.90
2023-02-08T21:31:19.639Z,59.50
2023-02-08T21:33:47.813Z,58.90
2023-02-08T21:36:18.042Z,59.80
2023-02-08T21:38:46.202Z,60.50
2023-02-08T21:41:20.130Z,61.20
2023-02-08T21:43:48.852Z,61.80
2023-02-08T21:46:17.923Z,61.00
2023-02-08T21:49:04.275Z,60.50
2023-02-08T21:51:50.310Z,60.20
2023-02-08T21:54:37.634Z,59.50
2023-02-08T21:57:08.942Z,58.70
2023-02-08T21:59:37.748Z,58.50
2023-02-08T22:02:06.724Z,58.50
2023-02-08T22:04:34.722Z,58.70
2023-02-08T22:07:04.405Z,59.50
2023-02-08T22:09:32.383Z,59.40
2023-02-08T22:12:00.387Z,59.10
2023-02-08T22:14:29.610Z,60.20
2023-02-08T22:16:57.562Z,61.10
2023-02-08T22:19:25.443Z,61.60
2023-02-08T22:21:53.427Z,62.90
2023-02-08T22:24:21.299Z,62.90
2023-02-08T22:26:49.227Z,64.30
2023-02-08T22:29:17.936Z,64.00
2023-02-08T22:31:47.388Z,63.10
2023-02-08T22:34:15.337Z,63.20
2023-02-08T22:36:43.272Z,63.30
2023-02-08T22:39:11.177Z,62.90
2023-02-08T22:41:39.193Z,61.50
2023-02-08T22:44:07.271Z,61.90
2023-02-08T22:46:35.251Z,61.60
2023-02-08T22:49:04.634Z,60.90
2023-02-08T22:51:32.598Z,60.50
2023-02-08T22:54:00.470Z,61.80
2023-02-08T22:56:29.869Z,62.40
2023-02-08T22:58:59.543Z,62.50
2023-02-08T23:01:28.106Z,63.00
2023-02-08T23:03:56.054Z,62.00
2023-02-08T23:06:27.919Z,62.60
2023-02-08T23:08:56.314Z,62.50
2023-02-08T23:11:24.404Z,61.30
2023-02-08T23:13:52.491Z,61.20
2023-02-08T23:16:21.014Z,62.50
2023-02-08T23:18:49.177Z,61.70
2023-02-08T23:21:20.501Z,62.60
2023-02-08T23:23:49.932Z,63.60
2023-02-08T23:26:20.423Z,64.90
2023-02-08T23:28:50.564Z,64.30
2023-02-08T23:31:20.186Z,64.00
2023-02-08T23:33:48.157Z,64.00
2023-02-08T23:36:18.978Z,65.60
2023-02-08T23:38:48.706Z,65.10
2023-02-08T23:41:18.983Z,64.70
2023-02-08T23:43:47.227Z,64.70
2023-02-08T23:46:17.661Z,64.10
2023-02-08T23:48:47.592Z,62.90
2023-02-08T23:51:17.213Z,62.60
2023-02-08T23:53:45.442Z,62.50
2023-02-08T23:56:17.429Z,62.40
2023-02-08T23:58:47.215Z,63.00
